Stations météo

Publicité
Cap Gris Nez, France (7004): Température de l'air & dewpoint: 21.05.2019 06:00:00 - 27.05.2019 06:00:00 (CEST)Cap Gris Nez, France (7004): Vitesse du vent & gusts: 21.05.2019 06:00:00 - 27.05.2019 06:00:00 (CEST)Cap Gris Nez, France (7004): Direction du vent: 21.05.2019 06:00:00 - 27.05.2019 06:00:00 (CEST)Cap Gris Nez, France (7004): Quantités de précipitations: 21.05.2019 06:00:00 - 27.05.2019 06:00:00 (CEST)
Date & Time tt [°C] td [°C] ff [km/h] ff [knt] fx [km/h] fx [knt] dd rr [mm]
27.05.2019 06:00:00 - - - - - - - -
27.05.2019 05:00:00 12,3 12,0 4 2 8 4 SW 0,0
27.05.2019 04:00:00 12,4 12,4 4 2 15 8 WNW 0,0
27.05.2019 03:00:00 12,8 12,8 13 7 44 24 W 0,0
27.05.2019 02:00:00 12,8 12,8 29 16 50 27 W -
27.05.2019 01:00:00 12,7 12,7 41 22 57 31 WSW 0,0
27.05.2019 00:00:00 12,8 12,8 44 24 59 32 WSW 0,0
26.05.2019 23:00:00 12,7 12,7 46 25 68 37 WSW 0,0
26.05.2019 22:00:00 12,7 12,7 48 26 67 36 WSW 0,0
26.05.2019 21:00:00 12,7 12,7 41 22 65 35 SW 0,0
26.05.2019 20:00:00 12,8 12,6 41 22 68 37 SW -
26.05.2019 19:00:00 12,9 12,6 44 24 67 36 SW 0,2
26.05.2019 18:00:00 13,0 12,2 41 22 65 35 SW 0,0
26.05.2019 17:00:00 13,1 12,2 42 23 61 33 SW 0,0
26.05.2019 16:00:00 13,6 11,8 37 20 67 36 SW 0,0
26.05.2019 15:00:00 14,3 12,0 37 20 57 31 SW 0,0
26.05.2019 14:00:00 14,2 12,4 26 14 54 29 SW -
26.05.2019 13:00:00 13,7 12,4 34 18 48 26 SW 0,0
26.05.2019 12:00:00 13,7 12,4 35 19 50 27 SSW 0,0
26.05.2019 11:00:00 13,8 12,7 35 19 48 26 SSW 0,0
26.05.2019 10:00:00 13,0 12,4 37 20 50 27 SSW 0,0
26.05.2019 09:00:00 12,3 12,1 39 21 52 28 SSW 0,0
26.05.2019 08:00:00 11,9 11,7 35 19 44 24 SSW -
26.05.2019 07:00:00 13,0 12,4 29 16 39 21 SSW 0,0
26.05.2019 06:00:00 13,1 12,5 24 13 35 19 S 0,0
26.05.2019 05:00:00 13,0 12,4 24 13 37 20 S 0,0
26.05.2019 04:00:00 12,8 12,3 26 14 41 22 S 0,0
26.05.2019 03:00:00 13,0 12,4 29 16 41 22 S 0,0
26.05.2019 02:00:00 13,1 12,3 29 16 41 22 SSW -
26.05.2019 01:00:00 13,2 12,1 29 16 41 22 SSW 0,0
26.05.2019 00:00:00 13,2 11,8 29 16 37 20 SSW 0,0
25.05.2019 23:00:00 13,1 11,5 29 16 37 20 SSW 0,0
25.05.2019 22:00:00 13,1 11,2 24 13 34 18 S 0,0
25.05.2019 21:00:00 13,6 11,3 24 13 35 19 S 0,0
25.05.2019 20:00:00 14,6 12,1 24 13 35 19 SSW -
25.05.2019 19:00:00 15,3 11,7 26 14 37 20 SSW 0,0
25.05.2019 18:00:00 15,6 11,6 24 13 34 18 SSW 0,0
25.05.2019 17:00:00 15,7 12,3 24 13 29 16 SSW 0,0
25.05.2019 16:00:00 15,2 12,0 22 12 29 16 SSW 0,0
25.05.2019 15:00:00 15,6 12,9 18 10 24 13 SSW 0,0
25.05.2019 14:00:00 14,7 11,3 11 6 16 9 SSW -
25.05.2019 13:00:00 15,2 11,6 4 2 9 5 W 0,2
25.05.2019 12:00:00 15,1 11,1 5 3 13 7 N 0,0
25.05.2019 11:00:00 14,4 11,2 9 5 18 10 N 0,0
25.05.2019 10:00:00 13,8 11,0 13 7 18 10 NNW 0,0
25.05.2019 09:00:00 13,9 10,9 11 6 24 13 N 0,0
25.05.2019 08:00:00 13,7 10,7 21 11 26 14 NNW -
25.05.2019 07:00:00 13,7 10,9 11 6 16 9 NNW 0,0
25.05.2019 06:00:00 13,7 10,9 13 7 16 9 NNW 0,0
25.05.2019 05:00:00 13,7 11,2 9 5 24 13 NW 0,0
25.05.2019 04:00:00 14,2 11,2 15 8 24 13 NW 0,0
25.05.2019 03:00:00 14,1 11,1 8 4 15 8 NNW 0,0
25.05.2019 02:00:00 14,1 10,9 9 5 18 10 W -
25.05.2019 01:00:00 13,4 11,3 15 8 21 11 SSW 0,0
25.05.2019 00:00:00 14,0 11,2 15 8 24 13 S 0,0
24.05.2019 23:00:00 14,1 10,7 15 8 26 14 SSW 0,0
24.05.2019 22:00:00 14,0 10,6 18 10 35 19 SSW 0,0
24.05.2019 21:00:00 14,1 9,7 16 9 24 13 S 0,0
24.05.2019 20:00:00 13,8 10,4 13 7 24 13 SW -
24.05.2019 19:00:00 15,2 11,0 21 11 26 14 WSW 0,0
24.05.2019 18:00:00 15,6 11,8 18 10 24 13 W 0,0
24.05.2019 17:00:00 17,6 11,4 5 3 15 8 NNW 0,0
24.05.2019 16:00:00 17,5 8,9 11 6 18 10 NE 0,0
24.05.2019 15:00:00 17,1 9,0 15 8 21 11 NE 0,0
24.05.2019 14:00:00 16,4 8,6 15 8 22 12 ENE -
24.05.2019 13:00:00 15,0 10,2 11 6 18 10 NE 0,0
24.05.2019 12:00:00 14,7 11,1 13 7 16 9 NE 0,0
24.05.2019 11:00:00 13,8 10,8 8 4 15 8 NNE 0,0
24.05.2019 10:00:00 12,6 11,2 4 2 9 5 NW 0,0
24.05.2019 09:00:00 11,7 11,1 8 4 18 10 SW 0,0
24.05.2019 08:00:00 11,2 10,6 13 7 26 14 W -
24.05.2019 07:00:00 11,3 10,7 16 9 31 17 SW 0,0
24.05.2019 06:00:00 11,3 10,8 22 12 35 19 SW 0,0
24.05.2019 05:00:00 11,2 9,9 24 13 35 19 SW 0,0
24.05.2019 04:00:00 11,2 10,1 22 12 37 20 SW 0,0
24.05.2019 03:00:00 11,6 10,5 26 14 37 20 WSW 0,0
24.05.2019 02:00:00 12,1 10,5 21 11 31 17 SW -
24.05.2019 01:00:00 12,6 10,1 22 12 34 18 SW 0,0
24.05.2019 00:00:00 12,9 10,6 21 11 29 16 SSW 0,0
23.05.2019 23:00:00 13,4 10,4 22 12 29 16 SSW 0,0
23.05.2019 22:00:00 13,6 10,8 16 9 26 14 S 0,0
23.05.2019 21:00:00 14,4 10,6 16 9 24 13 S 0,0
23.05.2019 20:00:00 15,2 11,2 15 8 22 12 S -
23.05.2019 19:00:00 16,0 10,5 16 9 24 13 SSW 0,0
23.05.2019 18:00:00 16,3 10,6 18 10 28 15 SW 0,0
23.05.2019 17:00:00 16,5 11,0 16 9 28 15 SSW 0,0
23.05.2019 16:00:00 17,4 11,9 22 12 31 17 SW 0,0
23.05.2019 15:00:00 18,4 10,7 24 13 37 20 SSW 0,0
23.05.2019 14:00:00 19,0 9,5 26 14 34 18 SSW -
23.05.2019 13:00:00 18,0 9,1 21 11 29 16 SSW 0,0
23.05.2019 12:00:00 16,6 8,3 15 8 24 13 SSW 0,0
23.05.2019 11:00:00 15,2 8,2 13 7 18 10 SSW 0,0
23.05.2019 10:00:00 14,4 10,2 15 8 18 10 SSW 0,0
23.05.2019 09:00:00 13,1 9,7 13 7 18 10 S 0,0
23.05.2019 08:00:00 11,9 9,5 16 9 26 14 S -
23.05.2019 07:00:00 10,5 8,6 15 8 24 13 S 0,0
23.05.2019 06:00:00 9,6 8,4 13 7 22 12 S 0,0
23.05.2019 05:00:00 10,7 9,9 16 9 22 12 SSW 0,0
23.05.2019 04:00:00 10,4 9,5 16 9 24 13 S 0,2
23.05.2019 03:00:00 11,0 10,2 18 10 26 14 SSW 0,0
23.05.2019 02:00:00 10,9 9,7 16 9 24 13 S -
23.05.2019 01:00:00 11,1 9,8 18 10 24 13 S 0,0
23.05.2019 00:00:00 11,5 10,7 18 10 26 14 S 0,0
22.05.2019 23:00:00 12,1 11,6 18 10 26 14 S 0,0
22.05.2019 22:00:00 12,4 11,6 18 10 26 14 SSW 0,0
22.05.2019 21:00:00 13,2 11,6 16 9 22 12 SSW 0,0
22.05.2019 20:00:00 14,2 12,2 16 9 22 12 SSW -
22.05.2019 19:00:00 15,1 9,9 13 7 18 10 SSW 0,0
22.05.2019 18:00:00 16,9 6,1 5 3 9 5 SW 0,0
22.05.2019 17:00:00 16,6 5,2 4 2 9 5 W 0,0
22.05.2019 16:00:00 15,7 5,3 8 4 13 7 NE 0,0
22.05.2019 15:00:00 15,2 7,0 9 5 16 9 NNE 0,0
22.05.2019 14:00:00 14,9 5,9 9 5 16 9 NE -
22.05.2019 13:00:00 14,7 7,7 9 5 16 9 NE 0,0
22.05.2019 12:00:00 13,2 8,5 13 7 18 10 NE 0,0
22.05.2019 11:00:00 13,2 8,7 13 7 18 10 NE 0,0
22.05.2019 10:00:00 13,1 8,8 13 7 16 9 NE 0,0
22.05.2019 09:00:00 12,8 8,3 13 7 18 10 NNE 0,0
22.05.2019 08:00:00 12,2 10,9 4 2 11 6 NNE -
22.05.2019 07:00:00 11,6 10,8 5 3 16 9 SSW 0,0
22.05.2019 06:00:00 11,3 10,5 13 7 21 11 S 0,0
22.05.2019 05:00:00 10,7 9,8 15 8 28 15 S 0,0
22.05.2019 04:00:00 11,2 9,9 18 10 28 15 S 0,0
22.05.2019 03:00:00 10,9 9,2 18 10 26 14 S 0,0
22.05.2019 02:00:00 10,8 8,6 15 8 18 10 S -
22.05.2019 01:00:00 10,6 7,7 13 7 16 9 SE 0,0
22.05.2019 00:00:00 11,2 8,4 11 6 21 11 SE 0,0
21.05.2019 23:00:00 12,6 9,4 15 8 22 12 S 0,0
21.05.2019 22:00:00 12,7 9,5 15 8 22 12 S 0,0
21.05.2019 21:00:00 13,9 9,7 15 8 22 12 SSW 0,0
21.05.2019 20:00:00 14,5 9,3 15 8 21 11 SSW -
21.05.2019 19:00:00 15,5 11,1 9 5 13 7 SW 0,0
21.05.2019 18:00:00 16,3 11,4 4 2 11 6 WSW 0,0
21.05.2019 17:00:00 16,2 10,7 4 2 9 5 WNW 0,0
21.05.2019 16:00:00 15,8 11,0 4 2 11 6 W 0,0
21.05.2019 15:00:00 16,0 10,5 5 3 13 7 W 0,0
21.05.2019 14:00:00 15,3 9,4 8 4 13 7 NE -
21.05.2019 13:00:00 14,8 9,8 9 5 15 8 NE 0,0
21.05.2019 12:00:00 14,1 10,7 11 6 22 12 NNE 0,0
21.05.2019 11:00:00 13,9 11,2 16 9 22 12 N 0,0
21.05.2019 10:00:00 13,7 11,4 15 8 18 10 NNE 0,0
21.05.2019 09:00:00 13,1 11,2 13 7 18 10 NNE 0,0
21.05.2019 08:00:00 12,7 11,8 8 4 11 6 N -
21.05.2019 07:00:00 11,6 11,1 5 3 9 5 W 0,0
21.05.2019 06:00:00 11,0 10,5 5 3 11 6 SW 0,2

tt = Température de l'air
td = dewpoint
ff = Vitesse du vent
fx = gusts
dd = Direction du vent
rr = Quantités de précipitations

stations d'obs. à proximité